Hebron, Connecticut
Current Conditions -  °F | °C
As of 12:52 PM on Sunday 25 Jan 2015 (Local Time) from KIJD Reporting Station
Clear Clear  
Wind Chill: 27°   Ceiling: Unl
Heat Index: 36°   Visibility: 10mi
Dew Point: 15°   Wind: 14mph
Humidity: 43%   Direction: 270°W
Pressure: 29.69"   Gusts: 25mph
Location:  41.66°N, 72.37°W
Report Text: KIJD 251752Z AUTO 27012G22KT 10SM CLR 02/M09 A2969 RMK AO2 SLP056 T00221094 10033 21006 51018 $
Loading
Personal Weather Stations






























Interactive Weather Map New forecast layout! Learn more

10-Day Weather Forecast

Advertisements
Track Severe Weather on mobile